createdAt,value
2022-10-31T00:01:38.155Z,97059.03
2022-10-31T00:04:07.178Z,97057.41
2022-10-31T00:06:36.850Z,97058.41
2022-10-31T00:09:06.419Z,97055.56
2022-10-31T00:11:34.663Z,97062.31
2022-10-31T00:14:03.260Z,97056.81
2022-10-31T00:16:32.555Z,97053.81
2022-10-31T00:19:03.336Z,97057.47
2022-10-31T00:21:32.566Z,97062.19
2022-10-31T00:24:03.171Z,97057.94
2022-10-31T00:26:32.677Z,97062.63
2022-10-31T00:29:01.958Z,97059.19
2022-10-31T00:31:30.970Z,97061.25
2022-10-31T00:34:00.167Z,97056.78
2022-10-31T00:36:28.895Z,97062.84
2022-10-31T00:38:57.157Z,97050.66
2022-10-31T00:41:27.390Z,97059.25
2022-10-31T00:43:55.616Z,97061.56
2022-10-31T00:46:23.763Z,97063.84
2022-10-31T00:48:52.659Z,97052.34
2022-10-31T00:51:20.972Z,97058.69
2022-10-31T00:53:49.221Z,97050.94
2022-10-31T00:56:17.386Z,97054.78
2022-10-31T00:58:46.892Z,97053.47
2022-10-31T01:01:15.154Z,97056.59
2022-10-31T01:03:43.399Z,97048.81
2022-10-31T01:06:15.393Z,97064.28
2022-10-31T01:08:44.074Z,97055.72
2022-10-31T01:11:18.650Z,97057.38
2022-10-31T01:13:49.007Z,97059.56
2022-10-31T01:16:19.554Z,97067.97
2022-10-31T01:18:48.176Z,97048.31
2022-10-31T01:21:19.124Z,97055.50
2022-10-31T01:23:47.731Z,97053.03
2022-10-31T01:26:18.851Z,97045.75
2022-10-31T01:28:50.826Z,97056.78
2022-10-31T01:31:21.481Z,97055.03
2022-10-31T01:33:51.543Z,97045.22
2022-10-31T01:36:23.884Z,97044.78
2022-10-31T01:38:58.159Z,97039.50
2022-10-31T01:41:29.278Z,97043.19
2022-10-31T01:44:01.529Z,97041.56
2022-10-31T01:46:34.951Z,97046.88
2022-10-31T01:49:07.408Z,97033.31
2022-10-31T01:51:40.822Z,97036.97
2022-10-31T01:54:14.468Z,97035.22
2022-10-31T01:56:49.865Z,97036.50
2022-10-31T01:59:23.052Z,97031.53
2022-10-31T02:01:53.952Z,97042.13
2022-10-31T02:04:25.244Z,97044.47
2022-10-31T02:07:00.800Z,97058.47
2022-10-31T02:09:30.920Z,97042.50
2022-10-31T02:12:01.380Z,97038.38
2022-10-31T02:14:33.204Z,97039.06
2022-10-31T02:17:01.419Z,97040.53
2022-10-31T02:19:38.896Z,97038.09
2022-10-31T02:22:15.457Z,97045.53
2022-10-31T02:24:58.629Z,97037.22
2022-10-31T02:28:04.153Z,97046.56
2022-10-31T02:30:43.344Z,97042.31
2022-10-31T02:33:27.261Z,97050.81
2022-10-31T02:36:07.265Z,97038.31
2022-10-31T02:38:49.591Z,97039.41
2022-10-31T02:41:37.640Z,97041.25
2022-10-31T02:44:16.442Z,97043.47
2022-10-31T02:46:51.033Z,97040.16
2022-10-31T02:49:28.648Z,97035.31
2022-10-31T02:51:57.011Z,97037.00
2022-10-31T02:54:28.260Z,97032.13
2022-10-31T02:57:03.517Z,97033.78
2022-10-31T02:59:35.047Z,97027.97
2022-10-31T03:02:50.046Z,97026.94
2022-10-31T03:05:39.688Z,97028.06
2022-10-31T03:08:19.173Z,97030.03
2022-10-31T03:10:54.874Z,97029.81
2022-10-31T03:13:32.176Z,97032.66
2022-10-31T03:16:11.149Z,97039.38
2022-10-31T03:18:46.522Z,97040.91
2022-10-31T03:21:20.634Z,97027.59
2022-10-31T03:23:51.194Z,97033.56
2022-10-31T03:26:23.950Z,97035.91
2022-10-31T03:28:56.655Z,97041.56
2022-10-31T03:31:31.307Z,97031.00
2022-10-31T03:34:04.221Z,97033.13
2022-10-31T03:36:37.103Z,97034.53
2022-10-31T03:39:09.639Z,97030.91
2022-10-31T03:41:44.635Z,97034.31
2022-10-31T03:44:19.775Z,97029.66
2022-10-31T03:46:54.873Z,97031.28
2022-10-31T03:49:23.836Z,97030.69
2022-10-31T03:52:01.165Z,97030.69
2022-10-31T03:54:36.827Z,97030.50
2022-10-31T03:57:15.603Z,97025.47
2022-10-31T03:59:49.151Z,97028.44
2022-10-31T04:02:21.418Z,97026.91
2022-10-31T04:04:51.165Z,97033.00
2022-10-31T04:07:23.376Z,97022.94
2022-10-31T04:09:54.433Z,97025.00
2022-10-31T04:12:24.860Z,97026.63
2022-10-31T04:15:13.089Z,97017.78
2022-10-31T04:17:47.182Z,97024.53
2022-10-31T04:20:18.757Z,97026.13
2022-10-31T04:22:48.366Z,97023.63
2022-10-31T04:25:16.747Z,97012.69
2022-10-31T04:27:44.870Z,97010.13
2022-10-31T04:30:14.010Z,97008.50
2022-10-31T04:32:42.730Z,97009.03
2022-10-31T04:35:10.913Z,97005.88
2022-10-31T04:37:39.249Z,97009.75
2022-10-31T04:40:10.568Z,97001.38
2022-10-31T04:42:44.364Z,97005.41
2022-10-31T04:45:15.584Z,96997.19
2022-10-31T04:47:46.918Z,97001.09
2022-10-31T04:50:15.022Z,96995.44
2022-10-31T04:52:45.509Z,96992.56
2022-10-31T04:55:17.860Z,96993.81
2022-10-31T04:58:11.875Z,96991.44
2022-10-31T05:00:40.184Z,96987.94
2022-10-31T05:03:08.513Z,96982.06
2022-10-31T05:05:36.829Z,96984.63
2022-10-31T05:08:05.997Z,96982.63
2022-10-31T05:10:35.845Z,96982.91
2022-10-31T05:13:06.440Z,96980.69
2022-10-31T05:15:36.022Z,96980.22
2022-10-31T05:18:23.172Z,96974.50
2022-10-31T05:21:10.018Z,96979.03
2022-10-31T05:23:47.495Z,96983.47
2022-10-31T05:26:19.164Z,96986.63
2022-10-31T05:28:51.407Z,96980.22
2022-10-31T05:31:19.654Z,96979.03
2022-10-31T05:33:47.997Z,96984.75
2022-10-31T05:36:34.707Z,96982.09
2022-10-31T05:39:12.787Z,96981.31
2022-10-31T05:41:45.650Z,96979.03
2022-10-31T05:44:18.885Z,96983.34
2022-10-31T05:47:16.660Z,96971.00
2022-10-31T05:50:03.435Z,96976.41
2022-10-31T05:52:59.461Z,96967.59
2022-10-31T05:55:41.668Z,96974.06
2022-10-31T05:58:16.835Z,96970.25
2022-10-31T06:00:52.550Z,96968.94
2022-10-31T06:03:20.922Z,96970.19
2022-10-31T06:05:55.070Z,96960.94
2022-10-31T06:08:27.197Z,96963.22
2022-10-31T06:10:57.671Z,96970.78
2022-10-31T06:13:47.973Z,96966.56
2022-10-31T06:16:22.015Z,96965.78
2022-10-31T06:18:51.798Z,96974.13
2022-10-31T06:21:21.194Z,96964.53
2022-10-31T06:23:52.348Z,96970.47
2022-10-31T06:26:38.875Z,96965.00
2022-10-31T06:29:08.775Z,96964.41
2022-10-31T06:32:00.123Z,96958.75
2022-10-31T06:34:29.971Z,96962.38
2022-10-31T06:36:59.900Z,96965.00
2022-10-31T06:39:32.497Z,96963.91
2022-10-31T06:42:03.284Z,96962.31
2022-10-31T06:44:39.527Z,96962.75
2022-10-31T06:47:56.860Z,96960.78
2022-10-31T06:50:32.615Z,96949.44
2022-10-31T06:53:01.365Z,96955.13
2022-10-31T06:55:30.521Z,96960.84
2022-10-31T06:58:03.105Z,96955.72
2022-10-31T07:00:34.660Z,96958.97
2022-10-31T07:03:13.419Z,96955.72
2022-10-31T07:05:42.626Z,96968.94
2022-10-31T07:08:14.903Z,96966.91
2022-10-31T07:10:54.006Z,96964.41
2022-10-31T07:13:26.364Z,96973.66
2022-10-31T07:16:09.337Z,96974.63
2022-10-31T07:18:38.805Z,96975.41
2022-10-31T07:21:07.952Z,96970.50
2022-10-31T07:23:39.147Z,96969.25
2022-10-31T07:26:27.083Z,96975.38
2022-10-31T07:28:55.694Z,96977.88
2022-10-31T07:31:28.157Z,96978.63
2022-10-31T07:34:00.455Z,96982.81
2022-10-31T07:36:31.405Z,96978.22
2022-10-31T07:39:04.728Z,96989.97
2022-10-31T07:41:45.970Z,96980.34
2022-10-31T07:44:22.989Z,96982.56
2022-10-31T07:47:11.286Z,96979.22
2022-10-31T07:49:59.578Z,96978.75
2022-10-31T07:53:04.746Z,96981.81
2022-10-31T07:55:56.218Z,96976.84
2022-10-31T07:58:30.501Z,96978.22
2022-10-31T08:01:01.179Z,96981.81
2022-10-31T08:03:40.819Z,96976.75
2022-10-31T08:06:11.763Z,96975.63
2022-10-31T08:09:09.170Z,96976.59
2022-10-31T08:11:37.784Z,96975.09
2022-10-31T08:14:06.489Z,96970.09
2022-10-31T08:16:35.607Z,96969.28
2022-10-31T08:19:07.723Z,96970.34
2022-10-31T08:21:40.251Z,96960.47
2022-10-31T08:24:10.508Z,96958.63
2022-10-31T08:26:39.510Z,96955.66
2022-10-31T08:29:10.691Z,96959.03
2022-10-31T08:31:42.889Z,96954.41
2022-10-31T08:34:31.141Z,96951.91
2022-10-31T08:37:25.265Z,96942.94
2022-10-31T08:39:56.362Z,96948.78
2022-10-31T08:42:24.608Z,96938.09
2022-10-31T08:44:53.129Z,96945.06
2022-10-31T08:47:23.682Z,96947.25
2022-10-31T08:49:53.214Z,96941.94
2022-10-31T08:52:51.244Z,96940.34
2022-10-31T08:55:16.311Z,96938.28
2022-10-31T08:58:05.248Z,96943.34
2022-10-31T09:00:42.252Z,96939.06
2022-10-31T09:03:22.690Z,96936.06
2022-10-31T09:05:56.247Z,96936.44
2022-10-31T09:08:25.384Z,96930.63
2022-10-31T09:10:54.076Z,96935.34
2022-10-31T09:13:41.390Z,96930.75
2022-10-31T09:16:44.934Z,96922.66
2022-10-31T09:19:22.615Z,96924.59
2022-10-31T09:21:55.570Z,96922.06
2022-10-31T09:24:24.345Z,96921.13
2022-10-31T09:26:52.512Z,96922.25
2022-10-31T09:29:28.134Z,96921.91
2022-10-31T09:32:00.508Z,96920.09
2022-10-31T09:34:33.128Z,96921.78
2022-10-31T09:37:11.831Z,96913.44
2022-10-31T09:39:41.420Z,96921.84
2022-10-31T09:42:49.999Z,96917.28
2022-10-31T09:45:31.119Z,96923.28
2022-10-31T09:48:43.929Z,96924.41
2022-10-31T09:51:29.803Z,96933.06
2022-10-31T09:54:30.713Z,96925.16
2022-10-31T09:57:01.203Z,96928.25
2022-10-31T09:59:33.654Z,96925.19
2022-10-31T10:02:09.418Z,96916.72
2022-10-31T10:04:46.283Z,96919.00
2022-10-31T10:07:31.374Z,96913.75
2022-10-31T10:10:26.950Z,96911.22
2022-10-31T10:13:42.560Z,96906.78
2022-10-31T10:16:34.181Z,96907.66
2022-10-31T10:19:21.810Z,96908.56
2022-10-31T10:22:05.029Z,96903.53
2022-10-31T10:24:55.828Z,96896.22
2022-10-31T10:27:41.634Z,96898.88
2022-10-31T10:30:17.199Z,96899.00
2022-10-31T10:32:52.141Z,96894.38
2022-10-31T10:35:28.550Z,96889.06
2022-10-31T10:38:04.203Z,96892.88
2022-10-31T10:40:33.184Z,96891.63
2022-10-31T10:43:26.759Z,96884.28
2022-10-31T10:46:37.660Z,96881.91
2022-10-31T10:49:33.112Z,96885.00
2022-10-31T10:52:27.429Z,96878.53
2022-10-31T10:55:05.193Z,96874.53
2022-10-31T10:57:55.047Z,96875.13
2022-10-31T11:00:27.646Z,96865.28
2022-10-31T11:02:57.009Z,96865.22
2022-10-31T11:05:32.544Z,96855.59
2022-10-31T11:08:00.904Z,96847.88
2022-10-31T11:10:30.320Z,96851.38
2022-10-31T11:13:24.634Z,96839.16
2022-10-31T11:16:00.666Z,96835.47
2022-10-31T11:18:34.915Z,96843.97
2022-10-31T11:21:06.467Z,96832.00
2022-10-31T11:23:38.959Z,96835.75
2022-10-31T11:26:20.726Z,96826.97
2022-10-31T11:28:59.644Z,96830.69
2022-10-31T11:31:33.835Z,96831.78
2022-10-31T11:34:04.986Z,96825.41
2022-10-31T11:36:40.058Z,96818.78
2022-10-31T11:39:22.048Z,96822.72
2022-10-31T11:41:55.795Z,96814.81
2022-10-31T11:44:28.552Z,96816.63
2022-10-31T11:47:01.129Z,96815.81
2022-10-31T11:49:34.789Z,96819.03
2022-10-31T11:52:08.308Z,96813.19
2022-10-31T11:54:47.289Z,96812.06
2022-10-31T11:57:30.838Z,96812.34
2022-10-31T12:00:05.031Z,96808.63
2022-10-31T12:02:41.855Z,96807.06
2022-10-31T12:05:23.710Z,96799.44
2022-10-31T12:07:52.663Z,96790.66
2022-10-31T12:10:32.794Z,96787.22
2022-10-31T12:13:13.299Z,96779.00
2022-10-31T12:15:47.520Z,96786.41
2022-10-31T12:18:54.213Z,96777.84
2022-10-31T12:21:53.023Z,96773.88
2022-10-31T12:24:41.853Z,96773.91
2022-10-31T12:27:22.233Z,96763.53
2022-10-31T12:30:19.352Z,96757.97
2022-10-31T12:33:22.525Z,96757.44
2022-10-31T12:36:04.449Z,96758.78
2022-10-31T12:38:56.811Z,96757.16
2022-10-31T12:41:41.577Z,96750.72
2022-10-31T12:44:28.784Z,96748.38
2022-10-31T12:47:20.721Z,96741.94
2022-10-31T12:50:02.611Z,96736.34
2022-10-31T12:52:49.164Z,96728.63
2022-10-31T12:55:43.582Z,96723.31
2022-10-31T12:58:22.103Z,96717.72
2022-10-31T13:01:00.274Z,96714.22
2022-10-31T13:03:36.020Z,96703.06
2022-10-31T13:06:11.644Z,96702.25
2022-10-31T13:08:47.084Z,96697.75
2022-10-31T13:11:20.772Z,96702.53
2022-10-31T13:14:01.990Z,96700.16
2022-10-31T13:16:36.549Z,96695.91
2022-10-31T13:19:14.775Z,96691.56
2022-10-31T13:21:53.525Z,96687.59
2022-10-31T13:24:30.193Z,96693.47
2022-10-31T13:27:01.332Z,96700.41
2022-10-31T13:29:35.296Z,96701.50
2022-10-31T13:32:08.122Z,96695.66
2022-10-31T13:34:40.959Z,96696.75
2022-10-31T13:37:22.195Z,96688.28
2022-10-31T13:40:12.894Z,96684.28
2022-10-31T13:42:57.860Z,96686.97
2022-10-31T13:45:28.080Z,96683.53
2022-10-31T13:48:19.651Z,96674.50
2022-10-31T13:51:00.642Z,96674.00
2022-10-31T13:53:44.645Z,96656.66
2022-10-31T13:56:27.962Z,96647.06
2022-10-31T13:59:21.641Z,96653.75
2022-10-31T14:01:57.090Z,96661.72
2022-10-31T14:04:34.564Z,96664.69
2022-10-31T14:07:10.812Z,96657.19
2022-10-31T14:09:42.899Z,96661.47
2022-10-31T14:12:26.448Z,96657.50
2022-10-31T14:15:21.403Z,96648.66
2022-10-31T14:17:52.626Z,96643.84
2022-10-31T14:20:39.237Z,96644.66
2022-10-31T14:23:38.724Z,96637.72
2022-10-31T14:26:37.312Z,96640.41
2022-10-31T14:29:27.389Z,96639.31
2022-10-31T14:32:03.878Z,96640.13
2022-10-31T14:34:38.489Z,96636.41
2022-10-31T14:37:39.136Z,96633.19
2022-10-31T14:40:26.123Z,96633.44
2022-10-31T14:43:47.627Z,96632.66
2022-10-31T14:46:32.824Z,96630.75
2022-10-31T14:49:35.240Z,96628.66
2022-10-31T14:52:07.375Z,96630.50
2022-10-31T14:54:40.239Z,96629.75
2022-10-31T14:57:16.695Z,96635.66
2022-10-31T14:59:52.731Z,96626.84
2022-10-31T15:02:27.472Z,96626.31
2022-10-31T15:04:57.672Z,96627.59
2022-10-31T15:07:27.800Z,96638.78
2022-10-31T15:10:01.238Z,96636.66
2022-10-31T15:12:32.153Z,96638.25
2022-10-31T15:15:13.581Z,96638.97
2022-10-31T15:17:50.168Z,96630.44
2022-10-31T15:20:22.776Z,96623.72
2022-10-31T15:22:51.609Z,96615.19
2022-10-31T15:25:22.616Z,96608.22
2022-10-31T15:27:52.642Z,96608.53
2022-10-31T15:30:24.027Z,96613.28
2022-10-31T15:32:58.615Z,96611.94
2022-10-31T15:35:30.142Z,96620.72
2022-10-31T15:38:01.758Z,96620.19
2022-10-31T15:40:30.297Z,96617.50
2022-10-31T15:43:06.904Z,96614.28
2022-10-31T15:45:36.637Z,96608.91
2022-10-31T15:48:18.607Z,96596.94
2022-10-31T15:50:52.055Z,96598.50
2022-10-31T15:53:25.595Z,96595.84
2022-10-31T15:55:57.390Z,96591.03
2022-10-31T15:58:26.539Z,96585.41
2022-10-31T16:01:03.308Z,96593.41
2022-10-31T16:03:35.230Z,96601.38
2022-10-31T16:06:06.506Z,96594.41
2022-10-31T16:08:37.175Z,96588.72
2022-10-31T16:11:25.090Z,96576.38
2022-10-31T16:14:01.521Z,96570.25
2022-10-31T16:16:35.598Z,96558.78
2022-10-31T16:19:14.609Z,96552.06
2022-10-31T16:21:42.914Z,96555.75
2022-10-31T16:24:21.350Z,96563.50
2022-10-31T16:26:51.895Z,96576.31
2022-10-31T16:29:35.876Z,96580.53
2022-10-31T16:32:26.504Z,96563.44
2022-10-31T16:35:25.342Z,96570.66
2022-10-31T16:37:54.200Z,96558.78
2022-10-31T16:40:24.690Z,96558.28
2022-10-31T16:42:53.939Z,96562.56
2022-10-31T16:45:24.966Z,96563.38
2022-10-31T16:48:07.101Z,96562.84
2022-10-31T16:50:36.734Z,96560.47
2022-10-31T16:53:20.266Z,96560.72
2022-10-31T16:55:58.812Z,96558.88
2022-10-31T16:58:33.103Z,96554.50
2022-10-31T17:03:55.003Z,96562.13
2022-10-31T17:06:24.579Z,96568.50
2022-10-31T17:08:56.685Z,96563.47
2022-10-31T17:11:27.412Z,96576.25
2022-10-31T17:13:57.343Z,96595.31
2022-10-31T17:16:25.485Z,96595.50
2022-10-31T17:18:53.625Z,96583.78
2022-10-31T17:21:27.996Z,96584.22
2022-10-31T17:23:56.499Z,96594.56
2022-10-31T17:26:24.671Z,96586.66
2022-10-31T17:28:52.891Z,96582.31
2022-10-31T17:31:29.112Z,96576.13
2022-10-31T17:34:02.048Z,96566.75
2022-10-31T17:36:34.235Z,96555.97
2022-10-31T17:39:03.331Z,96555.38
2022-10-31T17:41:31.667Z,96557.84
2022-10-31T17:44:00.853Z,96565.34
2022-10-31T17:46:29.284Z,96567.91
2022-10-31T17:49:00.848Z,96568.16
2022-10-31T17:51:29.081Z,96564.09
2022-10-31T17:53:59.835Z,96557.09
2022-10-31T17:56:28.363Z,96555.72
2022-10-31T17:58:57.887Z,96551.44
2022-10-31T18:01:26.354Z,96547.66
2022-10-31T18:03:58.720Z,96555.06
2022-10-31T18:06:27.255Z,96555.56
2022-10-31T18:08:57.917Z,96558.63
2022-10-31T18:11:27.433Z,96539.72
2022-10-31T18:13:57.340Z,96539.13
2022-10-31T18:16:26.754Z,96521.31
2022-10-31T18:18:59.362Z,96511.81
2022-10-31T18:21:27.722Z,96513.41
2022-10-31T18:23:56.883Z,96520.31
2022-10-31T18:26:28.351Z,96527.63
2022-10-31T18:28:56.661Z,96509.97
2022-10-31T18:31:25.661Z,96505.16
2022-10-31T18:33:54.528Z,96506.75
2022-10-31T18:36:23.018Z,96507.25
2022-10-31T18:38:51.299Z,96510.78
2022-10-31T18:41:20.070Z,96509.56
2022-10-31T18:43:49.753Z,96495.63
2022-10-31T18:46:19.033Z,96511.00
2022-10-31T18:48:47.406Z,96507.66
2022-10-31T18:51:18.371Z,96505.38
2022-10-31T18:53:52.947Z,96508.22
2022-10-31T18:56:22.048Z,96515.75
2022-10-31T18:58:52.507Z,96516.53
2022-10-31T19:01:22.755Z,96551.03
2022-10-31T19:03:55.718Z,96564.22
2022-10-31T19:06:24.417Z,96566.44
2022-10-31T19:08:59.958Z,96543.44
2022-10-31T19:11:29.375Z,96551.72
2022-10-31T19:13:59.803Z,96550.06
2022-10-31T19:16:28.641Z,96545.28
2022-10-31T19:18:59.988Z,96553.84
2022-10-31T19:21:30.404Z,96557.72
2022-10-31T19:24:03.141Z,96556.06
2022-10-31T19:26:31.609Z,96547.84
2022-10-31T19:29:01.652Z,96575.00
2022-10-31T19:31:32.439Z,96572.97
2022-10-31T19:34:00.662Z,96559.38
2022-10-31T19:36:29.613Z,96551.28
2022-10-31T19:38:58.907Z,96545.72
2022-10-31T19:41:30.547Z,96539.28
2022-10-31T19:44:02.000Z,96541.41
2022-10-31T19:49:18.943Z,96543.78
2022-10-31T19:51:47.148Z,96543.31
2022-10-31T19:54:15.468Z,96531.88
2022-10-31T19:59:13.694Z,96542.25
2022-10-31T20:01:42.059Z,96545.66
2022-10-31T20:04:10.403Z,96542.63
2022-10-31T20:06:41.922Z,96560.03
2022-10-31T20:09:13.636Z,96555.88
2022-10-31T20:11:44.229Z,96557.41
2022-10-31T20:14:17.225Z,96560.31
2022-10-31T20:16:46.908Z,96562.00
2022-10-31T20:19:15.185Z,96560.94
2022-10-31T20:21:43.591Z,96555.88
2022-10-31T20:24:16.542Z,96554.31
2022-10-31T20:26:44.644Z,96558.63
2022-10-31T20:29:16.836Z,96566.69
2022-10-31T20:31:47.188Z,96551.78
2022-10-31T20:34:16.070Z,96560.06
2022-10-31T20:36:44.687Z,96558.81
2022-10-31T20:39:13.135Z,96540.44
2022-10-31T20:41:41.392Z,96534.88
2022-10-31T20:44:09.630Z,96550.09
2022-10-31T20:46:39.594Z,96556.28
2022-10-31T20:49:08.195Z,96549.63
2022-10-31T20:51:36.355Z,96555.38
2022-10-31T20:54:06.758Z,96560.97
2022-10-31T20:56:38.156Z,96568.84
2022-10-31T20:59:08.065Z,96568.69
2022-10-31T21:01:38.518Z,96566.75
2022-10-31T21:04:09.835Z,96562.78
2022-10-31T21:06:38.054Z,96571.50
2022-10-31T21:09:06.645Z,96579.16
2022-10-31T21:11:34.926Z,96574.34
2022-10-31T21:14:03.058Z,96578.88
2022-10-31T21:16:36.267Z,96592.63
2022-10-31T21:19:06.682Z,96586.69
2022-10-31T21:21:36.725Z,96584.16
2022-10-31T21:24:11.135Z,96583.28
2022-10-31T21:26:43.165Z,96590.19
2022-10-31T21:29:13.271Z,96592.22
2022-10-31T21:31:43.199Z,96586.91
2022-10-31T21:34:13.303Z,96580.97
2022-10-31T21:36:41.906Z,96596.91
2022-10-31T21:39:14.624Z,96596.72
2022-10-31T21:41:46.466Z,96597.22
2022-10-31T21:44:14.697Z,96591.84
2022-10-31T21:46:43.195Z,96595.75
2022-10-31T21:49:15.818Z,96590.59
2022-10-31T21:51:44.147Z,96589.63
2022-10-31T21:54:28.354Z,96593.81
2022-10-31T21:56:57.357Z,96581.59
2022-10-31T21:59:26.141Z,96579.72
2022-10-31T22:01:56.883Z,96579.25
2022-10-31T22:04:26.597Z,96570.41
2022-10-31T22:06:55.008Z,96569.84
2022-10-31T22:09:23.759Z,96561.41
2022-10-31T22:11:52.127Z,96566.56
2022-10-31T22:14:20.353Z,96575.66
2022-10-31T22:16:48.636Z,96574.03
2022-10-31T22:19:17.114Z,96583.75
2022-10-31T22:21:48.848Z,96578.06
2022-10-31T22:24:18.383Z,96575.66
2022-10-31T22:26:46.734Z,96573.22
2022-10-31T22:29:17.999Z,96561.06
2022-10-31T22:31:50.781Z,96549.97
2022-10-31T22:34:22.140Z,96545.63
2022-10-31T22:36:51.773Z,96548.63
2022-10-31T22:39:20.924Z,96544.34
2022-10-31T22:41:49.152Z,96536.69
2022-10-31T22:44:17.441Z,96544.19
2022-10-31T22:46:45.689Z,96539.91
2022-10-31T22:49:16.109Z,96548.97
2022-10-31T22:51:45.755Z,96547.97
2022-10-31T22:54:18.129Z,96554.66
2022-10-31T22:56:47.410Z,96550.22
2022-10-31T22:59:17.650Z,96552.16
2022-10-31T23:01:46.629Z,96550.84
2022-10-31T23:04:16.558Z,96558.59
2022-10-31T23:06:45.164Z,96560.59
2022-10-31T23:09:18.655Z,96555.53
2022-10-31T23:11:47.262Z,96557.94
2022-10-31T23:14:20.412Z,96554.41
2022-10-31T23:16:51.429Z,96551.81
2022-10-31T23:19:22.904Z,96555.81
2022-10-31T23:21:57.340Z,96553.88
2022-10-31T23:24:32.859Z,96565.44
2022-10-31T23:27:08.510Z,96560.50
2022-10-31T23:29:45.937Z,96559.53
2022-10-31T23:34:48.831Z,96560.41
2022-10-31T23:37:18.113Z,96551.56
2022-10-31T23:39:49.449Z,96558.69
2022-10-31T23:42:18.708Z,96557.53
2022-10-31T23:44:47.453Z,96560.50
2022-10-31T23:47:16.778Z,96565.66
2022-10-31T23:49:44.975Z,96570.00
2022-10-31T23:52:14.598Z,96567.81
2022-10-31T23:54:43.405Z,96570.19
2022-10-31T23:57:15.102Z,96565.66
2022-10-31T23:59:43.591Z,96555.78
